sensor_id;sensor_type;location;lat;lon;timestamp;P1;durP1;ratioP1;P2;durP2;ratioP2
79227;SDS011;68658;46.174;11.254;2023-04-24T00:00:53;10.40;;;4.50;;
79227;SDS011;68658;46.174;11.254;2023-04-24T00:03:22;9.25;;;4.38;;
79227;SDS011;68658;46.174;11.254;2023-04-24T00:05:48;9.00;;;4.53;;
79227;SDS011;68658;46.174;11.254;2023-04-24T00:08:13;10.70;;;4.70;;
79227;SDS011;68658;46.174;11.254;2023-04-24T00:10:39;9.95;;;3.67;;
79227;SDS011;68658;46.174;11.254;2023-04-24T00:13:04;10.35;;;4.32;;
79227;SDS011;68658;46.174;11.254;2023-04-24T00:15:30;9.27;;;4.38;;
79227;SDS011;68658;46.174;11.254;2023-04-24T00:17:56;11.73;;;5.13;;
79227;SDS011;68658;46.174;11.254;2023-04-24T00:20:21;8.73;;;4.25;;
79227;SDS011;68658;46.174;11.254;2023-04-24T00:22:47;8.32;;;4.47;;
79227;SDS011;68658;46.174;11.254;2023-04-24T00:25:13;9.82;;;4.20;;
79227;SDS011;68658;46.174;11.254;2023-04-24T00:27:38;9.10;;;4.70;;
79227;SDS011;68658;46.174;11.254;2023-04-24T00:30:04;12.20;;;5.28;;
79227;SDS011;68658;46.174;11.254;2023-04-24T00:32:30;10.68;;;4.05;;
79227;SDS011;68658;46.174;11.254;2023-04-24T00:34:55;8.55;;;2.97;;
79227;SDS011;68658;46.174;11.254;2023-04-24T00:37:21;6.35;;;2.95;;
79227;SDS011;68658;46.174;11.254;2023-04-24T00:39:46;10.65;;;3.50;;
79227;SDS011;68658;46.174;11.254;2023-04-24T00:42:12;8.68;;;3.40;;
79227;SDS011;68658;46.174;11.254;2023-04-24T00:44:37;6.28;;;3.13;;
79227;SDS011;68658;46.174;11.254;2023-04-24T00:47:03;7.18;;;2.88;;
79227;SDS011;68658;46.174;11.254;2023-04-24T00:49:29;7.05;;;2.72;;
79227;SDS011;68658;46.174;11.254;2023-04-24T00:51:55;7.95;;;2.80;;
79227;SDS011;68658;46.174;11.254;2023-04-24T00:54:21;8.18;;;3.50;;
79227;SDS011;68658;46.174;11.254;2023-04-24T00:56:47;8.65;;;3.60;;
79227;SDS011;68658;46.174;11.254;2023-04-24T00:59:14;8.98;;;3.30;;
79227;SDS011;68658;46.174;11.254;2023-04-24T01:01:42;9.20;;;3.67;;
79227;SDS011;68658;46.174;11.254;2023-04-24T01:04:08;9.32;;;3.38;;
79227;SDS011;68658;46.174;11.254;2023-04-24T01:06:35;8.10;;;3.47;;
79227;SDS011;68658;46.174;11.254;2023-04-24T01:09:04;8.90;;;3.60;;
79227;SDS011;68658;46.174;11.254;2023-04-24T01:11:30;9.18;;;4.35;;
79227;SDS011;68658;46.174;11.254;2023-04-24T01:13:56;9.88;;;4.25;;
79227;SDS011;68658;46.174;11.254;2023-04-24T01:16:22;12.70;;;4.30;;
79227;SDS011;68658;46.174;11.254;2023-04-24T01:18:47;8.77;;;3.53;;
79227;SDS011;68658;46.174;11.254;2023-04-24T01:21:14;8.80;;;3.97;;
79227;SDS011;68658;46.174;11.254;2023-04-24T01:23:42;8.70;;;4.22;;
79227;SDS011;68658;46.174;11.254;2023-04-24T01:26:08;8.40;;;3.00;;
79227;SDS011;68658;46.174;11.254;2023-04-24T01:28:34;10.70;;;4.15;;
79227;SDS011;68658;46.174;11.254;2023-04-24T01:31:00;8.32;;;4.20;;
79227;SDS011;68658;46.174;11.254;2023-04-24T01:33:25;8.50;;;4.05;;
79227;SDS011;68658;46.174;11.254;2023-04-24T01:35:51;11.23;;;4.50;;
79227;SDS011;68658;46.174;11.254;2023-04-24T01:38:17;11.88;;;4.03;;
79227;SDS011;68658;46.174;11.254;2023-04-24T01:40:42;9.02;;;3.85;;
79227;SDS011;68658;46.174;11.254;2023-04-24T01:43:08;9.18;;;3.72;;
79227;SDS011;68658;46.174;11.254;2023-04-24T01:45:34;10.00;;;4.53;;
79227;SDS011;68658;46.174;11.254;2023-04-24T01:48:00;9.32;;;4.13;;
79227;SDS011;68658;46.174;11.254;2023-04-24T01:50:25;11.40;;;4.20;;
79227;SDS011;68658;46.174;11.254;2023-04-24T01:52:51;9.68;;;4.55;;
79227;SDS011;68658;46.174;11.254;2023-04-24T01:55:16;10.00;;;3.80;;
79227;SDS011;68658;46.174;11.254;2023-04-24T01:57:42;8.45;;;4.07;;
79227;SDS011;68658;46.174;11.254;2023-04-24T02:00:10;7.95;;;3.55;;
79227;SDS011;68658;46.174;11.254;2023-04-24T02:02:37;8.73;;;3.88;;
79227;SDS011;68658;46.174;11.254;2023-04-24T02:05:05;9.27;;;3.97;;
79227;SDS011;68658;46.174;11.254;2023-04-24T02:07:31;10.15;;;4.50;;
79227;SDS011;68658;46.174;11.254;2023-04-24T02:09:57;8.95;;;3.95;;
79227;SDS011;68658;46.174;11.254;2023-04-24T02:12:23;7.85;;;4.10;;
79227;SDS011;68658;46.174;11.254;2023-04-24T02:14:48;8.65;;;4.13;;
79227;SDS011;68658;46.174;11.254;2023-04-24T02:17:14;8.85;;;4.70;;
79227;SDS011;68658;46.174;11.254;2023-04-24T02:19:41;11.35;;;4.35;;
79227;SDS011;68658;46.174;11.254;2023-04-24T02:22:06;10.05;;;3.85;;
79227;SDS011;68658;46.174;11.254;2023-04-24T02:24:32;9.32;;;3.88;;
79227;SDS011;68658;46.174;11.254;2023-04-24T02:26:57;8.68;;;3.72;;
79227;SDS011;68658;46.174;11.254;2023-04-24T02:29:23;9.02;;;4.10;;
79227;SDS011;68658;46.174;11.254;2023-04-24T02:31:51;9.73;;;4.63;;
79227;SDS011;68658;46.174;11.254;2023-04-24T02:34:16;11.90;;;4.95;;
79227;SDS011;68658;46.174;11.254;2023-04-24T02:36:42;12.48;;;5.03;;
79227;SDS011;68658;46.174;11.254;2023-04-24T02:39:07;9.05;;;3.85;;
79227;SDS011;68658;46.174;11.254;2023-04-24T02:41:33;8.50;;;4.10;;
79227;SDS011;68658;46.174;11.254;2023-04-24T02:43:58;11.18;;;4.85;;
79227;SDS011;68658;46.174;11.254;2023-04-24T02:46:24;9.82;;;4.82;;
79227;SDS011;68658;46.174;11.254;2023-04-24T02:48:50;10.02;;;4.68;;
79227;SDS011;68658;46.174;11.254;2023-04-24T02:51:15;9.18;;;4.40;;
79227;SDS011;68658;46.174;11.254;2023-04-24T02:53:40;10.88;;;4.25;;
79227;SDS011;68658;46.174;11.254;2023-04-24T02:56:06;10.07;;;4.57;;
79227;SDS011;68658;46.174;11.254;2023-04-24T02:58:31;10.73;;;5.15;;
79227;SDS011;68658;46.174;11.254;2023-04-24T03:00:57;10.65;;;4.47;;
79227;SDS011;68658;46.174;11.254;2023-04-24T03:03:22;12.18;;;4.72;;
79227;SDS011;68658;46.174;11.254;2023-04-24T03:05:48;11.95;;;5.47;;
79227;SDS011;68658;46.174;11.254;2023-04-24T03:08:14;12.18;;;5.07;;
79227;SDS011;68658;46.174;11.254;2023-04-24T03:10:39;12.80;;;5.35;;
79227;SDS011;68658;46.174;11.254;2023-04-24T03:13:05;10.93;;;4.93;;
79227;SDS011;68658;46.174;11.254;2023-04-24T03:15:30;10.60;;;4.95;;
79227;SDS011;68658;46.174;11.254;2023-04-24T03:17:56;11.23;;;5.78;;
79227;SDS011;68658;46.174;11.254;2023-04-24T03:20:21;9.02;;;4.65;;
79227;SDS011;68658;46.174;11.254;2023-04-24T03:22:47;11.75;;;5.00;;
79227;SDS011;68658;46.174;11.254;2023-04-24T03:25:12;10.00;;;4.25;;
79227;SDS011;68658;46.174;11.254;2023-04-24T03:27:38;12.50;;;5.03;;
79227;SDS011;68658;46.174;11.254;2023-04-24T03:30:04;10.25;;;5.18;;
79227;SDS011;68658;46.174;11.254;2023-04-24T03:32:31;11.85;;;4.40;;
79227;SDS011;68658;46.174;11.254;2023-04-24T03:34:57;12.65;;;5.30;;
79227;SDS011;68658;46.174;11.254;2023-04-24T03:37:23;11.15;;;4.25;;
79227;SDS011;68658;46.174;11.254;2023-04-24T03:39:48;11.40;;;5.15;;
79227;SDS011;68658;46.174;11.254;2023-04-24T03:42:14;13.70;;;5.10;;
79227;SDS011;68658;46.174;11.254;2023-04-24T03:44:40;11.13;;;4.78;;
79227;SDS011;68658;46.174;11.254;2023-04-24T03:47:05;10.02;;;4.57;;
79227;SDS011;68658;46.174;11.254;2023-04-24T03:49:30;12.80;;;4.85;;
79227;SDS011;68658;46.174;11.254;2023-04-24T03:51:56;13.23;;;5.30;;
79227;SDS011;68658;46.174;11.254;2023-04-24T03:54:21;36.47;;;5.25;;
79227;SDS011;68658;46.174;11.254;2023-04-24T03:56:47;35.15;;;5.40;;
79227;SDS011;68658;46.174;11.254;2023-04-24T03:59:12;64.97;;;6.75;;
79227;SDS011;68658;46.174;11.254;2023-04-24T04:01:38;11.90;;;3.95;;
79227;SDS011;68658;46.174;11.254;2023-04-24T04:04:05;48.33;;;6.13;;
79227;SDS011;68658;46.174;11.254;2023-04-24T04:06:33;38.88;;;6.13;;
79227;SDS011;68658;46.174;11.254;2023-04-24T04:08:59;16.33;;;4.63;;
79227;SDS011;68658;46.174;11.254;2023-04-24T04:11:25;8.40;;;3.47;;
79227;SDS011;68658;46.174;11.254;2023-04-24T04:13:51;8.57;;;3.83;;
79227;SDS011;68658;46.174;11.254;2023-04-24T04:16:17;9.60;;;4.28;;
79227;SDS011;68658;46.174;11.254;2023-04-24T04:18:42;10.32;;;4.05;;
79227;SDS011;68658;46.174;11.254;2023-04-24T04:21:09;8.05;;;3.83;;
79227;SDS011;68658;46.174;11.254;2023-04-24T04:23:34;10.38;;;4.18;;
79227;SDS011;68658;46.174;11.254;2023-04-24T04:26:00;10.15;;;3.90;;
79227;SDS011;68658;46.174;11.254;2023-04-24T04:28:26;8.57;;;3.60;;
79227;SDS011;68658;46.174;11.254;2023-04-24T04:30:51;7.63;;;3.38;;
79227;SDS011;68658;46.174;11.254;2023-04-24T04:33:20;10.00;;;4.50;;
79227;SDS011;68658;46.174;11.254;2023-04-24T04:35:46;10.85;;;4.22;;
79227;SDS011;68658;46.174;11.254;2023-04-24T04:38:17;53.47;;;6.82;;
79227;SDS011;68658;46.174;11.254;2023-04-24T04:40:43;2.92;;;0.52;;
79227;SDS011;68658;46.174;11.254;2023-04-24T04:43:08;1.20;;;0.10;;
79227;SDS011;68658;46.174;11.254;2023-04-24T04:45:35;0.65;;;0.00;;
79227;SDS011;68658;46.174;11.254;2023-04-24T04:48:01;0.10;;;0.00;;
79227;SDS011;68658;46.174;11.254;2023-04-24T04:50:27;0.30;;;0.10;;
79227;SDS011;68658;46.174;11.254;2023-04-24T04:52:53;0.10;;;0.00;;
79227;SDS011;68658;46.174;11.254;2023-04-24T04:55:18;0.22;;;0.00;;
79227;SDS011;68658;46.174;11.254;2023-04-24T04:57:45;0.00;;;0.00;;
79227;SDS011;68658;46.174;11.254;2023-04-24T05:00:13;0.05;;;0.00;;
79227;SDS011;68658;46.174;11.254;2023-04-24T05:02:39;0.10;;;0.00;;
79227;SDS011;68658;46.174;11.254;2023-04-24T05:05:05;0.17;;;0.00;;
79227;SDS011;68658;46.174;11.254;2023-04-24T05:07:32;0.10;;;0.00;;
79227;SDS011;68658;46.174;11.254;2023-04-24T05:09:57;0.10;;;0.00;;
79227;SDS011;68658;46.174;11.254;2023-04-24T05:12:23;0.13;;;0.13;;
79227;SDS011;68658;46.174;11.254;2023-04-24T05:14:48;6.85;;;2.70;;
79227;SDS011;68658;46.174;11.254;2023-04-24T05:17:14;2.40;;;1.00;;
79227;SDS011;68658;46.174;11.254;2023-04-24T05:19:40;3.97;;;3.53;;
79227;SDS011;68658;46.174;11.254;2023-04-24T05:22:06;2.30;;;0.80;;
79227;SDS011;68658;46.174;11.254;2023-04-24T05:24:35;0.73;;;0.13;;
79227;SDS011;68658;46.174;11.254;2023-04-24T05:27:01;0.68;;;0.00;;
79227;SDS011;68658;46.174;11.254;2023-04-24T05:29:27;3.38;;;1.58;;
79227;SDS011;68658;46.174;11.254;2023-04-24T05:31:55;0.82;;;0.43;;
79227;SDS011;68658;46.174;11.254;2023-04-24T05:34:21;0.30;;;0.00;;
79227;SDS011;68658;46.174;11.254;2023-04-24T05:36:47;0.10;;;0.00;;
79227;SDS011;68658;46.174;11.254;2023-04-24T05:39:13;1.65;;;0.82;;
79227;SDS011;68658;46.174;11.254;2023-04-24T05:41:38;0.95;;;0.17;;
79227;SDS011;68658;46.174;11.254;2023-04-24T05:44:04;0.22;;;0.00;;
79227;SDS011;68658;46.174;11.254;2023-04-24T05:46:29;1.13;;;0.03;;
79227;SDS011;68658;46.174;11.254;2023-04-24T05:48:55;0.28;;;0.00;;
79227;SDS011;68658;46.174;11.254;2023-04-24T05:51:21;1.17;;;0.10;;
79227;SDS011;68658;46.174;11.254;2023-04-24T05:53:49;0.55;;;0.00;;
79227;SDS011;68658;46.174;11.254;2023-04-24T05:56:15;0.30;;;0.00;;
79227;SDS011;68658;46.174;11.254;2023-04-24T05:58:41;0.20;;;0.00;;
79227;SDS011;68658;46.174;11.254;2023-04-24T06:01:07;0.40;;;0.00;;
79227;SDS011;68658;46.174;11.254;2023-04-24T06:03:34;0.30;;;0.00;;
79227;SDS011;68658;46.174;11.254;2023-04-24T06:05:59;1.45;;;0.00;;
79227;SDS011;68658;46.174;11.254;2023-04-24T06:08:27;0.63;;;0.10;;
79227;SDS011;68658;46.174;11.254;2023-04-24T06:10:53;0.52;;;0.00;;
79227;SDS011;68658;46.174;11.254;2023-04-24T06:13:18;0.35;;;0.00;;
79227;SDS011;68658;46.174;11.254;2023-04-24T06:15:44;0.00;;;0.00;;
79227;SDS011;68658;46.174;11.254;2023-04-24T06:18:10;0.45;;;0.00;;
79227;SDS011;68658;46.174;11.254;2023-04-24T06:20:35;1.65;;;0.00;;
79227;SDS011;68658;46.174;11.254;2023-04-24T06:23:01;0.00;;;0.00;;
79227;SDS011;68658;46.174;11.254;2023-04-24T06:25:27;0.20;;;0.00;;
79227;SDS011;68658;46.174;11.254;2023-04-24T06:27:55;0.03;;;0.03;;
79227;SDS011;68658;46.174;11.254;2023-04-24T06:30:22;1.00;;;0.08;;
79227;SDS011;68658;46.174;11.254;2023-04-24T06:32:47;1.90;;;0.20;;
79227;SDS011;68658;46.174;11.254;2023-04-24T06:35:15;2.08;;;0.77;;
79227;SDS011;68658;46.174;11.254;2023-04-24T06:37:41;0.68;;;0.10;;
79227;SDS011;68658;46.174;11.254;2023-04-24T06:40:08;0.10;;;0.00;;
79227;SDS011;68658;46.174;11.254;2023-04-24T06:42:34;0.32;;;0.00;;
79227;SDS011;68658;46.174;11.254;2023-04-24T06:45:00;0.28;;;0.00;;
79227;SDS011;68658;46.174;11.254;2023-04-24T06:47:26;0.00;;;0.00;;
79227;SDS011;68658;46.174;11.254;2023-04-24T06:49:51;1.20;;;0.50;;
79227;SDS011;68658;46.174;11.254;2023-04-24T06:52:18;0.03;;;0.00;;
79227;SDS011;68658;46.174;11.254;2023-04-24T06:54:44;0.60;;;0.10;;
79227;SDS011;68658;46.174;11.254;2023-04-24T06:57:09;0.40;;;0.08;;
79227;SDS011;68658;46.174;11.254;2023-04-24T06:59:37;0.57;;;0.00;;
79227;SDS011;68658;46.174;11.254;2023-04-24T07:02:03;0.20;;;0.00;;
79227;SDS011;68658;46.174;11.254;2023-04-24T07:04:29;0.28;;;0.22;;
79227;SDS011;68658;46.174;11.254;2023-04-24T07:06:55;0.00;;;0.00;;
79227;SDS011;68658;46.174;11.254;2023-04-24T07:09:23;0.32;;;0.00;;
79227;SDS011;68658;46.174;11.254;2023-04-24T07:11:50;0.20;;;0.00;;
79227;SDS011;68658;46.174;11.254;2023-04-24T07:14:16;0.00;;;0.00;;
79227;SDS011;68658;46.174;11.254;2023-04-24T07:16:42;0.00;;;0.00;;
79227;SDS011;68658;46.174;11.254;2023-04-24T07:19:08;0.00;;;0.00;;
79227;SDS011;68658;46.174;11.254;2023-04-24T07:21:34;0.15;;;0.10;;
79227;SDS011;68658;46.174;11.254;2023-04-24T07:24:00;0.50;;;0.00;;
79227;SDS011;68658;46.174;11.254;2023-04-24T07:26:26;0.82;;;0.10;;
79227;SDS011;68658;46.174;11.254;2023-04-24T07:28:52;0.65;;;0.03;;
79227;SDS011;68658;46.174;11.254;2023-04-24T07:31:21;0.60;;;0.00;;
79227;SDS011;68658;46.174;11.254;2023-04-24T07:33:46;0.22;;;0.00;;
79227;SDS011;68658;46.174;11.254;2023-04-24T07:36:12;0.10;;;0.00;;
79227;SDS011;68658;46.174;11.254;2023-04-24T07:38:42;0.73;;;0.00;;
79227;SDS011;68658;46.174;11.254;2023-04-24T07:41:08;0.10;;;0.00;;
79227;SDS011;68658;46.174;11.254;2023-04-24T07:43:34;0.43;;;0.00;;
79227;SDS011;68658;46.174;11.254;2023-04-24T07:46:00;0.00;;;0.00;;
79227;SDS011;68658;46.174;11.254;2023-04-24T07:48:25;0.05;;;0.00;;
79227;SDS011;68658;46.174;11.254;2023-04-24T07:50:51;0.05;;;0.00;;
79227;SDS011;68658;46.174;11.254;2023-04-24T07:53:17;0.20;;;0.00;;
79227;SDS011;68658;46.174;11.254;2023-04-24T07:55:43;0.00;;;0.00;;
79227;SDS011;68658;46.174;11.254;2023-04-24T07:58:09;0.00;;;0.00;;
79227;SDS011;68658;46.174;11.254;2023-04-24T08:00:34;0.20;;;0.00;;
79227;SDS011;68658;46.174;11.254;2023-04-24T08:03:00;0.00;;;0.00;;
79227;SDS011;68658;46.174;11.254;2023-04-24T08:05:25;0.00;;;0.00;;
79227;SDS011;68658;46.174;11.254;2023-04-24T08:07:52;0.10;;;0.00;;
79227;SDS011;68658;46.174;11.254;2023-04-24T08:10:18;0.10;;;0.00;;
79227;SDS011;68658;46.174;11.254;2023-04-24T08:12:44;0.03;;;0.03;;
79227;SDS011;68658;46.174;11.254;2023-04-24T08:15:13;0.00;;;0.00;;
79227;SDS011;68658;46.174;11.254;2023-04-24T08:17:39;0.10;;;0.00;;
79227;SDS011;68658;46.174;11.254;2023-04-24T08:20:04;0.00;;;0.00;;
79227;SDS011;68658;46.174;11.254;2023-04-24T08:22:31;0.00;;;0.00;;
79227;SDS011;68658;46.174;11.254;2023-04-24T08:24:59;0.47;;;0.00;;
79227;SDS011;68658;46.174;11.254;2023-04-24T08:27:25;1.35;;;0.13;;
79227;SDS011;68658;46.174;11.254;2023-04-24T08:29:52;3.28;;;0.43;;
79227;SDS011;68658;46.174;11.254;2023-04-24T08:32:18;0.10;;;0.00;;
79227;SDS011;68658;46.174;11.254;2023-04-24T08:34:44;0.20;;;0.00;;
79227;SDS011;68658;46.174;11.254;2023-04-24T08:37:09;0.10;;;0.00;;
79227;SDS011;68658;46.174;11.254;2023-04-24T08:39:36;0.08;;;0.00;;
79227;SDS011;68658;46.174;11.254;2023-04-24T08:42:01;0.20;;;0.00;;
79227;SDS011;68658;46.174;11.254;2023-04-24T08:44:33;0.20;;;0.00;;
79227;SDS011;68658;46.174;11.254;2023-04-24T08:47:04;0.10;;;0.00;;
79227;SDS011;68658;46.174;11.254;2023-04-24T08:49:30;0.20;;;0.00;;
79227;SDS011;68658;46.174;11.254;2023-04-24T08:51:56;0.10;;;0.10;;
79227;SDS011;68658;46.174;11.254;2023-04-24T08:54:21;0.10;;;0.00;;
79227;SDS011;68658;46.174;11.254;2023-04-24T08:56:48;0.95;;;0.00;;
79227;SDS011;68658;46.174;11.254;2023-04-24T08:59:14;0.00;;;0.00;;
79227;SDS011;68658;46.174;11.254;2023-04-24T09:01:40;0.00;;;0.00;;
79227;SDS011;68658;46.174;11.254;2023-04-24T09:04:07;0.00;;;0.00;;
79227;SDS011;68658;46.174;11.254;2023-04-24T09:06:37;0.10;;;0.00;;
79227;SDS011;68658;46.174;11.254;2023-04-24T09:09:04;1.58;;;0.00;;
79227;SDS011;68658;46.174;11.254;2023-04-24T09:11:30;0.10;;;0.00;;
79227;SDS011;68658;46.174;11.254;2023-04-24T09:13:57;0.90;;;0.00;;
79227;SDS011;68658;46.174;11.254;2023-04-24T09:16:25;2.50;;;0.55;;
79227;SDS011;68658;46.174;11.254;2023-04-24T09:18:51;0.55;;;0.00;;
79227;SDS011;68658;46.174;11.254;2023-04-24T09:21:17;0.57;;;0.00;;
79227;SDS011;68658;46.174;11.254;2023-04-24T09:23:45;1.75;;;0.10;;
79227;SDS011;68658;46.174;11.254;2023-04-24T09:26:11;1.27;;;0.13;;
79227;SDS011;68658;46.174;11.254;2023-04-24T09:28:38;0.60;;;0.10;;
79227;SDS011;68658;46.174;11.254;2023-04-24T09:31:09;0.35;;;0.15;;
79227;SDS011;68658;46.174;11.254;2023-04-24T09:33:39;0.45;;;0.05;;
79227;SDS011;68658;46.174;11.254;2023-04-24T09:36:04;1.88;;;0.00;;
79227;SDS011;68658;46.174;11.254;2023-04-24T09:38:32;0.45;;;0.00;;
79227;SDS011;68658;46.174;11.254;2023-04-24T09:41:01;0.90;;;0.00;;
79227;SDS011;68658;46.174;11.254;2023-04-24T09:43:28;0.80;;;0.00;;
79227;SDS011;68658;46.174;11.254;2023-04-24T09:45:58;1.20;;;0.13;;
79227;SDS011;68658;46.174;11.254;2023-04-24T09:48:32;1.15;;;0.03;;
79227;SDS011;68658;46.174;11.254;2023-04-24T09:51:00;1.23;;;0.10;;
79227;SDS011;68658;46.174;11.254;2023-04-24T09:53:26;0.22;;;0.00;;
79227;SDS011;68658;46.174;11.254;2023-04-24T09:55:52;0.98;;;0.40;;
79227;SDS011;68658;46.174;11.254;2023-04-24T09:58:18;0.55;;;0.00;;
79227;SDS011;68658;46.174;11.254;2023-04-24T10:00:52;0.25;;;0.10;;
79227;SDS011;68658;46.174;11.254;2023-04-24T10:03:19;1.48;;;0.00;;
79227;SDS011;68658;46.174;11.254;2023-04-24T10:05:45;0.60;;;0.00;;
79227;SDS011;68658;46.174;11.254;2023-04-24T10:08:14;1.10;;;0.00;;
79227;SDS011;68658;46.174;11.254;2023-04-24T10:10:40;0.88;;;0.10;;
79227;SDS011;68658;46.174;11.254;2023-04-24T10:13:09;0.80;;;0.03;;
79227;SDS011;68658;46.174;11.254;2023-04-24T10:15:35;0.30;;;0.00;;
79227;SDS011;68658;46.174;11.254;2023-04-24T10:18:02;0.20;;;0.00;;
79227;SDS011;68658;46.174;11.254;2023-04-24T10:20:33;0.30;;;0.10;;
79227;SDS011;68658;46.174;11.254;2023-04-24T10:23:00;0.80;;;0.10;;
79227;SDS011;68658;46.174;11.254;2023-04-24T10:25:30;0.35;;;0.00;;
79227;SDS011;68658;46.174;11.254;2023-04-24T10:27:57;0.47;;;0.00;;
79227;SDS011;68658;46.174;11.254;2023-04-24T10:30:27;0.13;;;0.00;;
79227;SDS011;68658;46.174;11.254;2023-04-24T10:32:54;0.20;;;0.00;;
79227;SDS011;68658;46.174;11.254;2023-04-24T10:35:21;0.63;;;0.03;;
79227;SDS011;68658;46.174;11.254;2023-04-24T10:37:56;1.08;;;0.00;;
79227;SDS011;68658;46.174;11.254;2023-04-24T10:40:30;0.43;;;0.00;;
79227;SDS011;68658;46.174;11.254;2023-04-24T10:42:58;0.60;;;0.00;;
79227;SDS011;68658;46.174;11.254;2023-04-24T10:45:35;0.30;;;0.00;;
79227;SDS011;68658;46.174;11.254;2023-04-24T10:48:03;0.20;;;0.00;;
79227;SDS011;68658;46.174;11.254;2023-04-24T10:50:45;0.10;;;0.00;;
79227;SDS011;68658;46.174;11.254;2023-04-24T10:53:13;1.00;;;0.05;;
79227;SDS011;68658;46.174;11.254;2023-04-24T10:55:44;0.20;;;0.00;;
79227;SDS011;68658;46.174;11.254;2023-04-24T10:58:13;0.73;;;0.10;;
79227;SDS011;68658;46.174;11.254;2023-04-24T11:00:48;1.45;;;0.00;;
79227;SDS011;68658;46.174;11.254;2023-04-24T11:03:25;0.60;;;0.05;;
79227;SDS011;68658;46.174;11.254;2023-04-24T11:06:05;3.72;;;0.30;;
79227;SDS011;68658;46.174;11.254;2023-04-24T11:08:36;0.28;;;0.00;;
79227;SDS011;68658;46.174;11.254;2023-04-24T11:11:15;0.43;;;0.00;;
79227;SDS011;68658;46.174;11.254;2023-04-24T11:16:20;0.20;;;0.00;;
79227;SDS011;68658;46.174;11.254;2023-04-24T11:26:53;0.32;;;0.00;;
79227;SDS011;68658;46.174;11.254;2023-04-24T11:29:22;0.13;;;0.00;;
79227;SDS011;68658;46.174;11.254;2023-04-24T11:31:48;0.30;;;0.03;;
79227;SDS011;68658;46.174;11.254;2023-04-24T11:34:16;0.10;;;0.00;;
79227;SDS011;68658;46.174;11.254;2023-04-24T11:36:44;0.30;;;0.00;;
79227;SDS011;68658;46.174;11.254;2023-04-24T11:39:13;0.32;;;0.00;;
79227;SDS011;68658;46.174;11.254;2023-04-24T11:41:39;0.55;;;0.10;;
79227;SDS011;68658;46.174;11.254;2023-04-24T11:44:06;0.05;;;0.00;;
79227;SDS011;68658;46.174;11.254;2023-04-24T11:46:33;0.20;;;0.00;;
79227;SDS011;68658;46.174;11.254;2023-04-24T11:48:59;0.43;;;0.00;;
79227;SDS011;68658;46.174;11.254;2023-04-24T11:51:26;0.50;;;0.00;;
79227;SDS011;68658;46.174;11.254;2023-04-24T11:53:53;0.88;;;0.10;;
79227;SDS011;68658;46.174;11.254;2023-04-24T11:56:19;0.43;;;0.00;;
79227;SDS011;68658;46.174;11.254;2023-04-24T11:58:47;0.68;;;0.10;;
79227;SDS011;68658;46.174;11.254;2023-04-24T12:01:16;0.20;;;0.00;;
79227;SDS011;68658;46.174;11.254;2023-04-24T12:03:58;0.28;;;0.00;;
79227;SDS011;68658;46.174;11.254;2023-04-24T12:06:25;0.82;;;0.00;;
79227;SDS011;68658;46.174;11.254;2023-04-24T12:08:52;1.73;;;0.20;;
79227;SDS011;68658;46.174;11.254;2023-04-24T12:11:20;1.38;;;0.13;;
79227;SDS011;68658;46.174;11.254;2023-04-24T12:13:46;0.95;;;0.20;;
79227;SDS011;68658;46.174;11.254;2023-04-24T12:16:15;0.55;;;0.00;;
79227;SDS011;68658;46.174;11.254;2023-04-24T12:18:44;1.63;;;0.10;;
79227;SDS011;68658;46.174;11.254;2023-04-24T12:23:54;0.50;;;0.00;;
79227;SDS011;68658;46.174;11.254;2023-04-24T12:26:20;0.88;;;0.00;;
79227;SDS011;68658;46.174;11.254;2023-04-24T12:28:48;0.30;;;0.03;;
79227;SDS011;68658;46.174;11.254;2023-04-24T12:31:15;0.15;;;0.00;;
79227;SDS011;68658;46.174;11.254;2023-04-24T12:33:41;0.30;;;0.10;;
79227;SDS011;68658;46.174;11.254;2023-04-24T12:36:09;0.45;;;0.00;;
79227;SDS011;68658;46.174;11.254;2023-04-24T12:38:37;0.35;;;0.05;;
79227;SDS011;68658;46.174;11.254;2023-04-24T12:41:09;0.25;;;0.00;;
79227;SDS011;68658;46.174;11.254;2023-04-24T12:43:37;0.75;;;0.00;;
79227;SDS011;68658;46.174;11.254;2023-04-24T12:46:02;0.35;;;0.00;;
79227;SDS011;68658;46.174;11.254;2023-04-24T12:48:29;0.40;;;0.00;;
79227;SDS011;68658;46.174;11.254;2023-04-24T12:50:54;0.40;;;0.00;;
79227;SDS011;68658;46.174;11.254;2023-04-24T12:53:21;0.10;;;0.00;;
79227;SDS011;68658;46.174;11.254;2023-04-24T12:55:47;0.20;;;0.00;;
79227;SDS011;68658;46.174;11.254;2023-04-24T12:58:18;0.32;;;0.03;;
79227;SDS011;68658;46.174;11.254;2023-04-24T13:00:45;0.43;;;0.10;;
79227;SDS011;68658;46.174;11.254;2023-04-24T13:03:11;0.70;;;0.10;;
79227;SDS011;68658;46.174;11.254;2023-04-24T13:05:37;1.25;;;0.25;;
79227;SDS011;68658;46.174;11.254;2023-04-24T13:08:02;0.65;;;0.00;;
79227;SDS011;68658;46.174;11.254;2023-04-24T13:10:28;0.85;;;0.00;;
79227;SDS011;68658;46.174;11.254;2023-04-24T13:12:53;0.22;;;0.10;;
79227;SDS011;68658;46.174;11.254;2023-04-24T13:15:19;0.10;;;0.00;;
79227;SDS011;68658;46.174;11.254;2023-04-24T13:17:45;0.73;;;0.00;;
79227;SDS011;68658;46.174;11.254;2023-04-24T13:20:10;0.13;;;0.00;;
79227;SDS011;68658;46.174;11.254;2023-04-24T13:22:35;0.77;;;0.15;;
79227;SDS011;68658;46.174;11.254;2023-04-24T13:25:02;0.40;;;0.00;;
79227;SDS011;68658;46.174;11.254;2023-04-24T13:27:27;0.77;;;0.00;;
79227;SDS011;68658;46.174;11.254;2023-04-24T13:29:53;0.30;;;0.00;;
79227;SDS011;68658;46.174;11.254;2023-04-24T13:32:18;0.60;;;0.00;;
79227;SDS011;68658;46.174;11.254;2023-04-24T13:34:44;0.15;;;0.00;;
79227;SDS011;68658;46.174;11.254;2023-04-24T13:37:09;0.20;;;0.03;;
79227;SDS011;68658;46.174;11.254;2023-04-24T13:39:38;0.00;;;0.00;;
79227;SDS011;68658;46.174;11.254;2023-04-24T13:42:03;0.30;;;0.00;;
79227;SDS011;68658;46.174;11.254;2023-04-24T13:44:28;0.10;;;0.00;;
79227;SDS011;68658;46.174;11.254;2023-04-24T13:46:54;0.40;;;0.32;;
79227;SDS011;68658;46.174;11.254;2023-04-24T13:49:22;0.20;;;0.00;;
79227;SDS011;68658;46.174;11.254;2023-04-24T13:51:53;0.80;;;0.00;;
79227;SDS011;68658;46.174;11.254;2023-04-24T13:54:20;0.50;;;0.05;;
79227;SDS011;68658;46.174;11.254;2023-04-24T13:56:45;0.40;;;0.10;;
79227;SDS011;68658;46.174;11.254;2023-04-24T13:59:12;0.47;;;0.05;;
79227;SDS011;68658;46.174;11.254;2023-04-24T14:01:38;0.10;;;0.00;;
79227;SDS011;68658;46.174;11.254;2023-04-24T14:04:04;0.40;;;0.10;;
79227;SDS011;68658;46.174;11.254;2023-04-24T14:06:29;0.35;;;0.00;;
79227;SDS011;68658;46.174;11.254;2023-04-24T14:08:58;1.33;;;0.10;;
79227;SDS011;68658;46.174;11.254;2023-04-24T14:11:24;0.65;;;0.05;;
79227;SDS011;68658;46.174;11.254;2023-04-24T14:13:51;0.43;;;0.15;;
79227;SDS011;68658;46.174;11.254;2023-04-24T14:16:17;0.30;;;0.20;;
79227;SDS011;68658;46.174;11.254;2023-04-24T14:18:42;0.30;;;0.00;;
79227;SDS011;68658;46.174;11.254;2023-04-24T14:21:07;0.30;;;0.10;;
79227;SDS011;68658;46.174;11.254;2023-04-24T14:23:33;0.43;;;0.05;;
79227;SDS011;68658;46.174;11.254;2023-04-24T14:25:59;0.50;;;0.00;;
79227;SDS011;68658;46.174;11.254;2023-04-24T14:28:24;1.10;;;0.00;;
79227;SDS011;68658;46.174;11.254;2023-04-24T14:30:51;1.17;;;0.20;;
79227;SDS011;68658;46.174;11.254;2023-04-24T14:33:17;0.40;;;0.10;;
79227;SDS011;68658;46.174;11.254;2023-04-24T14:35:43;1.10;;;0.13;;
79227;SDS011;68658;46.174;11.254;2023-04-24T14:38:08;1.02;;;0.10;;
79227;SDS011;68658;46.174;11.254;2023-04-24T14:40:35;0.32;;;0.22;;
79227;SDS011;68658;46.174;11.254;2023-04-24T14:43:00;0.60;;;0.03;;